To NAV CANADA Home Page Login to a new session Search on AWWS site Disclaimer Vers la page française équivalente Tips FAQ What's new on the site To the Forecasts and Observations / NOTAM section To "File a Flight Plan" website Publications and other links Update of the User's profile FIC Telephone Numbers My Weather Data Folder Route Weather Data Regional Weather Data Local Weather Data To the Forecasts and Observations / NOTAM section
Request Generated 03/19/2019 at 23:05:33 UTC . Weather information available at that time is displayed.

METAR/TAF

LA RONGE (BARBER FIELD)/SK    

METAR CYVC 192300Z 30007KT 15SM FEW250 11/M00 A2997 RMK CI1 SLP165=
METAR CYVC 192200Z 29010KT 15SM FEW250 11/M00 A2996 RMK CI2 SLP162=
METAR CYVC 192100Z 29011KT 15SM SCT250 10/M00 A2996 RMK CI3 SLP162=

TAF CYVC 191838Z 1919/2007 29010KT P6SM SCT250
BECMG 2001/2003 VRB03KT
RMK NXT FCST BY 200100Z=
Your time UTC time
Weather data provided by Environment Canada and NAV CANADA